sensor_id;sensor_type;location;lat;lon;timestamp;P1;durP1;ratioP1;P2;durP2;ratioP2
66429;SDS011;53242;51.694;10.006;2023-04-03T00:02:18;1.50;;;0.63;;
66429;SDS011;53242;51.694;10.006;2023-04-03T00:04:41;3.40;;;0.68;;
66429;SDS011;53242;51.694;10.006;2023-04-03T00:07:04;2.03;;;0.70;;
66429;SDS011;53242;51.694;10.006;2023-04-03T00:09:26;3.47;;;0.70;;
66429;SDS011;53242;51.694;10.006;2023-04-03T00:11:49;7.13;;;1.00;;
66429;SDS011;53242;51.694;10.006;2023-04-03T00:14:11;1.67;;;0.55;;
66429;SDS011;53242;51.694;10.006;2023-04-03T00:16:34;2.10;;;0.50;;
66429;SDS011;53242;51.694;10.006;2023-04-03T00:18:56;2.60;;;0.70;;
66429;SDS011;53242;51.694;10.006;2023-04-03T00:21:19;5.57;;;0.93;;
66429;SDS011;53242;51.694;10.006;2023-04-03T00:23:41;4.93;;;0.98;;
66429;SDS011;53242;51.694;10.006;2023-04-03T00:26:04;2.50;;;0.60;;
66429;SDS011;53242;51.694;10.006;2023-04-03T00:28:26;2.85;;;0.63;;
66429;SDS011;53242;51.694;10.006;2023-04-03T00:30:50;2.22;;;0.40;;
66429;SDS011;53242;51.694;10.006;2023-04-03T00:33:13;3.75;;;0.60;;
66429;SDS011;53242;51.694;10.006;2023-04-03T00:35:36;1.50;;;0.43;;
66429;SDS011;53242;51.694;10.006;2023-04-03T00:37:58;3.63;;;0.80;;
66429;SDS011;53242;51.694;10.006;2023-04-03T00:40:22;2.55;;;0.73;;
66429;SDS011;53242;51.694;10.006;2023-04-03T00:42:46;2.63;;;0.80;;
66429;SDS011;53242;51.694;10.006;2023-04-03T00:47:32;3.80;;;0.82;;
66429;SDS011;53242;51.694;10.006;2023-04-03T00:49:55;2.95;;;0.70;;
66429;SDS011;53242;51.694;10.006;2023-04-03T00:52:17;7.18;;;1.00;;
66429;SDS011;53242;51.694;10.006;2023-04-03T00:54:45;3.35;;;0.82;;
66429;SDS011;53242;51.694;10.006;2023-04-03T00:57:10;3.60;;;1.25;;
66429;SDS011;53242;51.694;10.006;2023-04-03T00:59:34;3.85;;;0.90;;
66429;SDS011;53242;51.694;10.006;2023-04-03T01:02:00;3.75;;;0.90;;
66429;SDS011;53242;51.694;10.006;2023-04-03T01:04:33;5.22;;;1.05;;
66429;SDS011;53242;51.694;10.006;2023-04-03T01:07:01;4.53;;;0.90;;
66429;SDS011;53242;51.694;10.006;2023-04-03T01:09:28;4.78;;;0.90;;
66429;SDS011;53242;51.694;10.006;2023-04-03T01:11:50;3.40;;;1.10;;
66429;SDS011;53242;51.694;10.006;2023-04-03T01:14:13;3.20;;;0.70;;
66429;SDS011;53242;51.694;10.006;2023-04-03T01:16:36;4.50;;;0.90;;
66429;SDS011;53242;51.694;10.006;2023-04-03T01:18:58;1.75;;;0.70;;
66429;SDS011;53242;51.694;10.006;2023-04-03T01:24:44;3.95;;;0.73;;
66429;SDS011;53242;51.694;10.006;2023-04-03T01:27:06;4.03;;;0.80;;
66429;SDS011;53242;51.694;10.006;2023-04-03T01:29:31;2.63;;;0.70;;
66429;SDS011;53242;51.694;10.006;2023-04-03T01:31:55;5.35;;;0.85;;
66429;SDS011;53242;51.694;10.006;2023-04-03T01:34:20;10.63;;;1.15;;
66429;SDS011;53242;51.694;10.006;2023-04-03T01:36:42;3.22;;;0.75;;
66429;SDS011;53242;51.694;10.006;2023-04-03T01:39:05;3.15;;;0.70;;
66429;SDS011;53242;51.694;10.006;2023-04-03T01:41:28;2.67;;;0.85;;
66429;SDS011;53242;51.694;10.006;2023-04-03T01:43:57;3.67;;;0.93;;
66429;SDS011;53242;51.694;10.006;2023-04-03T01:46:21;3.83;;;0.65;;
66429;SDS011;53242;51.694;10.006;2023-04-03T01:48:44;4.30;;;1.02;;
66429;SDS011;53242;51.694;10.006;2023-04-03T01:51:06;4.35;;;0.80;;
66429;SDS011;53242;51.694;10.006;2023-04-03T01:53:29;3.28;;;0.63;;
66429;SDS011;53242;51.694;10.006;2023-04-03T01:55:52;2.17;;;0.60;;
66429;SDS011;53242;51.694;10.006;2023-04-03T01:58:14;4.53;;;1.00;;
66429;SDS011;53242;51.694;10.006;2023-04-03T02:00:37;2.45;;;0.68;;
66429;SDS011;53242;51.694;10.006;2023-04-03T02:02:59;1.55;;;0.65;;
66429;SDS011;53242;51.694;10.006;2023-04-03T02:05:22;2.97;;;0.75;;
66429;SDS011;53242;51.694;10.006;2023-04-03T02:07:45;3.08;;;0.73;;
66429;SDS011;53242;51.694;10.006;2023-04-03T02:10:08;1.50;;;0.45;;
66429;SDS011;53242;51.694;10.006;2023-04-03T02:12:31;2.28;;;0.70;;
66429;SDS011;53242;51.694;10.006;2023-04-03T02:14:54;3.17;;;0.70;;
66429;SDS011;53242;51.694;10.006;2023-04-03T02:17:17;2.95;;;0.85;;
66429;SDS011;53242;51.694;10.006;2023-04-03T02:19:39;1.48;;;0.70;;
66429;SDS011;53242;51.694;10.006;2023-04-03T02:22:02;2.88;;;0.98;;
66429;SDS011;53242;51.694;10.006;2023-04-03T02:24:26;5.13;;;0.60;;
66429;SDS011;53242;51.694;10.006;2023-04-03T02:26:48;3.85;;;0.63;;
66429;SDS011;53242;51.694;10.006;2023-04-03T02:29:11;3.85;;;0.80;;
66429;SDS011;53242;51.694;10.006;2023-04-03T02:31:33;1.40;;;0.55;;
66429;SDS011;53242;51.694;10.006;2023-04-03T02:33:57;4.30;;;0.65;;
66429;SDS011;53242;51.694;10.006;2023-04-03T02:36:20;2.00;;;0.55;;
66429;SDS011;53242;51.694;10.006;2023-04-03T02:38:48;3.40;;;0.75;;
66429;SDS011;53242;51.694;10.006;2023-04-03T02:41:11;3.45;;;0.82;;
66429;SDS011;53242;51.694;10.006;2023-04-03T02:43:34;5.72;;;1.10;;
66429;SDS011;53242;51.694;10.006;2023-04-03T02:45:57;3.65;;;0.80;;
66429;SDS011;53242;51.694;10.006;2023-04-03T02:48:19;3.13;;;0.73;;
66429;SDS011;53242;51.694;10.006;2023-04-03T02:50:42;3.20;;;0.50;;
66429;SDS011;53242;51.694;10.006;2023-04-03T02:53:04;3.83;;;0.70;;
66429;SDS011;53242;51.694;10.006;2023-04-03T02:55:27;1.00;;;0.52;;
66429;SDS011;53242;51.694;10.006;2023-04-03T02:57:52;2.85;;;0.60;;
66429;SDS011;53242;51.694;10.006;2023-04-03T03:00:14;2.25;;;0.77;;
66429;SDS011;53242;51.694;10.006;2023-04-03T03:02:37;2.05;;;0.50;;
66429;SDS011;53242;51.694;10.006;2023-04-03T03:04:59;2.17;;;0.70;;
66429;SDS011;53242;51.694;10.006;2023-04-03T03:07:22;4.57;;;0.60;;
66429;SDS011;53242;51.694;10.006;2023-04-03T03:09:44;2.95;;;0.50;;
66429;SDS011;53242;51.694;10.006;2023-04-03T03:12:07;3.03;;;0.82;;
66429;SDS011;53242;51.694;10.006;2023-04-03T03:14:29;2.50;;;0.70;;
66429;SDS011;53242;51.694;10.006;2023-04-03T03:16:52;3.28;;;0.90;;
66429;SDS011;53242;51.694;10.006;2023-04-03T03:19:14;3.30;;;0.63;;
66429;SDS011;53242;51.694;10.006;2023-04-03T03:21:37;5.18;;;0.80;;
66429;SDS011;53242;51.694;10.006;2023-04-03T03:23:59;2.80;;;0.60;;
66429;SDS011;53242;51.694;10.006;2023-04-03T03:26:22;3.80;;;1.05;;
66429;SDS011;53242;51.694;10.006;2023-04-03T03:28:45;1.15;;;0.47;;
66429;SDS011;53242;51.694;10.006;2023-04-03T03:31:08;3.95;;;0.85;;
66429;SDS011;53242;51.694;10.006;2023-04-03T03:33:33;3.45;;;0.85;;
66429;SDS011;53242;51.694;10.006;2023-04-03T03:35:56;3.53;;;0.80;;
66429;SDS011;53242;51.694;10.006;2023-04-03T03:38:19;4.30;;;0.70;;
66429;SDS011;53242;51.694;10.006;2023-04-03T03:40:42;3.22;;;0.95;;
66429;SDS011;53242;51.694;10.006;2023-04-03T03:43:04;1.92;;;0.88;;
66429;SDS011;53242;51.694;10.006;2023-04-03T03:45:27;3.70;;;0.73;;
66429;SDS011;53242;51.694;10.006;2023-04-03T03:47:49;2.42;;;0.70;;
66429;SDS011;53242;51.694;10.006;2023-04-03T03:50:12;3.67;;;0.93;;
66429;SDS011;53242;51.694;10.006;2023-04-03T03:52:35;3.03;;;0.75;;
66429;SDS011;53242;51.694;10.006;2023-04-03T03:54:57;4.10;;;0.88;;
66429;SDS011;53242;51.694;10.006;2023-04-03T03:57:20;4.10;;;0.90;;
66429;SDS011;53242;51.694;10.006;2023-04-03T03:59:42;3.00;;;0.80;;
66429;SDS011;53242;51.694;10.006;2023-04-03T04:02:06;3.88;;;0.85;;
66429;SDS011;53242;51.694;10.006;2023-04-03T04:04:29;2.15;;;0.85;;
66429;SDS011;53242;51.694;10.006;2023-04-03T04:06:52;5.45;;;0.95;;
66429;SDS011;53242;51.694;10.006;2023-04-03T04:09:14;4.22;;;1.30;;
66429;SDS011;53242;51.694;10.006;2023-04-03T04:11:37;3.72;;;0.98;;
66429;SDS011;53242;51.694;10.006;2023-04-03T04:14:01;5.88;;;1.40;;
66429;SDS011;53242;51.694;10.006;2023-04-03T04:16:25;2.53;;;0.98;;
66429;SDS011;53242;51.694;10.006;2023-04-03T04:18:49;3.63;;;1.10;;
66429;SDS011;53242;51.694;10.006;2023-04-03T04:21:12;5.88;;;0.93;;
66429;SDS011;53242;51.694;10.006;2023-04-03T04:23:35;5.32;;;1.35;;
66429;SDS011;53242;51.694;10.006;2023-04-03T04:25:58;3.05;;;1.10;;
66429;SDS011;53242;51.694;10.006;2023-04-03T04:28:21;3.58;;;1.10;;
66429;SDS011;53242;51.694;10.006;2023-04-03T04:30:46;4.18;;;0.90;;
66429;SDS011;53242;51.694;10.006;2023-04-03T04:33:11;2.78;;;0.80;;
66429;SDS011;53242;51.694;10.006;2023-04-03T04:35:34;3.92;;;1.10;;
66429;SDS011;53242;51.694;10.006;2023-04-03T04:37:58;3.20;;;0.90;;
66429;SDS011;53242;51.694;10.006;2023-04-03T04:40:22;3.28;;;0.90;;
66429;SDS011;53242;51.694;10.006;2023-04-03T04:42:45;2.38;;;0.70;;
66429;SDS011;53242;51.694;10.006;2023-04-03T04:45:07;5.55;;;0.93;;
66429;SDS011;53242;51.694;10.006;2023-04-03T04:47:30;2.78;;;0.75;;
66429;SDS011;53242;51.694;10.006;2023-04-03T04:49:53;2.03;;;0.60;;
66429;SDS011;53242;51.694;10.006;2023-04-03T04:52:15;2.80;;;0.60;;
66429;SDS011;53242;51.694;10.006;2023-04-03T04:54:38;3.80;;;0.70;;
66429;SDS011;53242;51.694;10.006;2023-04-03T04:57:00;2.13;;;0.75;;
66429;SDS011;53242;51.694;10.006;2023-04-03T04:59:24;2.38;;;0.68;;
66429;SDS011;53242;51.694;10.006;2023-04-03T05:01:49;2.10;;;0.60;;
66429;SDS011;53242;51.694;10.006;2023-04-03T05:04:15;3.35;;;0.80;;
66429;SDS011;53242;51.694;10.006;2023-04-03T05:06:39;3.03;;;0.90;;
66429;SDS011;53242;51.694;10.006;2023-04-03T05:09:06;3.20;;;1.08;;
66429;SDS011;53242;51.694;10.006;2023-04-03T05:11:29;6.03;;;0.80;;
66429;SDS011;53242;51.694;10.006;2023-04-03T05:13:52;3.50;;;0.80;;
66429;SDS011;53242;51.694;10.006;2023-04-03T05:16:17;3.75;;;1.20;;
66429;SDS011;53242;51.694;10.006;2023-04-03T05:18:39;3.13;;;0.85;;
66429;SDS011;53242;51.694;10.006;2023-04-03T05:21:05;2.28;;;0.73;;
66429;SDS011;53242;51.694;10.006;2023-04-03T05:23:28;6.95;;;0.90;;
66429;SDS011;53242;51.694;10.006;2023-04-03T05:25:52;4.78;;;1.00;;
66429;SDS011;53242;51.694;10.006;2023-04-03T05:28:16;2.28;;;1.02;;
66429;SDS011;53242;51.694;10.006;2023-04-03T05:30:39;4.30;;;1.27;;
66429;SDS011;53242;51.694;10.006;2023-04-03T05:33:02;5.93;;;1.45;;
66429;SDS011;53242;51.694;10.006;2023-04-03T05:35:35;3.80;;;0.90;;
66429;SDS011;53242;51.694;10.006;2023-04-03T05:37:59;3.78;;;1.10;;
66429;SDS011;53242;51.694;10.006;2023-04-03T05:40:22;4.80;;;0.95;;
66429;SDS011;53242;51.694;10.006;2023-04-03T05:42:47;3.53;;;0.90;;
66429;SDS011;53242;51.694;10.006;2023-04-03T05:45:11;2.42;;;0.80;;
66429;SDS011;53242;51.694;10.006;2023-04-03T05:47:34;3.78;;;0.85;;
66429;SDS011;53242;51.694;10.006;2023-04-03T05:49:56;4.47;;;1.10;;
66429;SDS011;53242;51.694;10.006;2023-04-03T05:54:57;2.40;;;1.10;;
66429;SDS011;53242;51.694;10.006;2023-04-03T05:57:22;3.85;;;1.30;;
66429;SDS011;53242;51.694;10.006;2023-04-03T05:59:45;5.55;;;1.30;;
66429;SDS011;53242;51.694;10.006;2023-04-03T06:02:13;6.95;;;1.20;;
66429;SDS011;53242;51.694;10.006;2023-04-03T06:04:37;3.80;;;1.10;;
66429;SDS011;53242;51.694;10.006;2023-04-03T06:07:00;2.67;;;0.70;;
66429;SDS011;53242;51.694;10.006;2023-04-03T06:09:24;5.93;;;1.10;;
66429;SDS011;53242;51.694;10.006;2023-04-03T06:11:48;4.97;;;1.10;;
66429;SDS011;53242;51.694;10.006;2023-04-03T06:14:12;3.58;;;1.20;;
66429;SDS011;53242;51.694;10.006;2023-04-03T06:16:35;7.57;;;1.30;;
66429;SDS011;53242;51.694;10.006;2023-04-03T06:18:59;2.47;;;0.88;;
66429;SDS011;53242;51.694;10.006;2023-04-03T06:21:21;4.35;;;1.30;;
66429;SDS011;53242;51.694;10.006;2023-04-03T06:23:44;3.88;;;1.08;;
66429;SDS011;53242;51.694;10.006;2023-04-03T06:26:07;3.63;;;1.30;;
66429;SDS011;53242;51.694;10.006;2023-04-03T06:28:29;3.78;;;1.48;;
66429;SDS011;53242;51.694;10.006;2023-04-03T06:30:51;4.53;;;1.38;;
66429;SDS011;53242;51.694;10.006;2023-04-03T06:33:14;2.72;;;1.20;;
66429;SDS011;53242;51.694;10.006;2023-04-03T06:35:36;4.47;;;1.45;;
66429;SDS011;53242;51.694;10.006;2023-04-03T06:38:00;4.28;;;1.50;;
66429;SDS011;53242;51.694;10.006;2023-04-03T06:40:24;4.95;;;1.30;;
66429;SDS011;53242;51.694;10.006;2023-04-03T06:42:48;4.40;;;1.20;;
66429;SDS011;53242;51.694;10.006;2023-04-03T06:45:12;2.92;;;1.23;;
66429;SDS011;53242;51.694;10.006;2023-04-03T06:47:34;3.78;;;1.25;;
66429;SDS011;53242;51.694;10.006;2023-04-03T06:49:57;7.22;;;1.85;;
66429;SDS011;53242;51.694;10.006;2023-04-03T06:52:19;6.50;;;1.88;;
66429;SDS011;53242;51.694;10.006;2023-04-03T06:54:42;3.95;;;1.90;;
66429;SDS011;53242;51.694;10.006;2023-04-03T06:57:05;5.90;;;1.80;;
66429;SDS011;53242;51.694;10.006;2023-04-03T06:59:27;5.18;;;1.48;;
66429;SDS011;53242;51.694;10.006;2023-04-03T07:01:50;5.82;;;1.60;;
66429;SDS011;53242;51.694;10.006;2023-04-03T07:04:13;5.30;;;1.77;;
66429;SDS011;53242;51.694;10.006;2023-04-03T07:06:35;3.50;;;1.02;;
66429;SDS011;53242;51.694;10.006;2023-04-03T07:08:58;3.80;;;1.40;;
66429;SDS011;53242;51.694;10.006;2023-04-03T07:11:20;5.97;;;1.73;;
66429;SDS011;53242;51.694;10.006;2023-04-03T07:13:43;4.47;;;1.42;;
66429;SDS011;53242;51.694;10.006;2023-04-03T07:16:06;4.55;;;1.25;;
66429;SDS011;53242;51.694;10.006;2023-04-03T07:18:29;4.75;;;1.25;;
66429;SDS011;53242;51.694;10.006;2023-04-03T07:20:51;3.35;;;1.10;;
66429;SDS011;53242;51.694;10.006;2023-04-03T07:23:14;4.35;;;1.00;;
66429;SDS011;53242;51.694;10.006;2023-04-03T07:25:37;5.13;;;1.23;;
66429;SDS011;53242;51.694;10.006;2023-04-03T07:28:03;3.03;;;0.80;;
66429;SDS011;53242;51.694;10.006;2023-04-03T07:30:26;5.03;;;1.17;;
66429;SDS011;53242;51.694;10.006;2023-04-03T07:32:48;4.63;;;1.30;;
66429;SDS011;53242;51.694;10.006;2023-04-03T07:35:11;4.43;;;1.15;;
66429;SDS011;53242;51.694;10.006;2023-04-03T07:37:34;3.97;;;1.13;;
66429;SDS011;53242;51.694;10.006;2023-04-03T07:39:56;6.32;;;0.82;;
66429;SDS011;53242;51.694;10.006;2023-04-03T07:42:21;4.25;;;1.48;;
66429;SDS011;53242;51.694;10.006;2023-04-03T07:44:43;5.03;;;1.45;;
66429;SDS011;53242;51.694;10.006;2023-04-03T07:47:05;4.05;;;1.20;;
66429;SDS011;53242;51.694;10.006;2023-04-03T07:49:28;4.60;;;0.95;;
66429;SDS011;53242;51.694;10.006;2023-04-03T07:51:50;2.45;;;0.70;;
66429;SDS011;53242;51.694;10.006;2023-04-03T07:54:13;4.28;;;0.70;;
66429;SDS011;53242;51.694;10.006;2023-04-03T07:56:36;3.70;;;0.65;;
66429;SDS011;53242;51.694;10.006;2023-04-03T07:58:58;2.50;;;0.63;;
66429;SDS011;53242;51.694;10.006;2023-04-03T08:01:21;4.90;;;0.70;;
66429;SDS011;53242;51.694;10.006;2023-04-03T08:03:43;3.08;;;0.70;;
66429;SDS011;53242;51.694;10.006;2023-04-03T08:06:07;3.65;;;0.85;;
66429;SDS011;53242;51.694;10.006;2023-04-03T08:08:31;4.25;;;0.80;;
66429;SDS011;53242;51.694;10.006;2023-04-03T08:10:54;1.63;;;0.52;;
66429;SDS011;53242;51.694;10.006;2023-04-03T08:13:17;2.65;;;1.27;;
66429;SDS011;53242;51.694;10.006;2023-04-03T08:15:40;1.98;;;0.52;;
66429;SDS011;53242;51.694;10.006;2023-04-03T08:18:03;1.92;;;0.35;;
66429;SDS011;53242;51.694;10.006;2023-04-03T08:20:26;0.73;;;0.40;;
66429;SDS011;53242;51.694;10.006;2023-04-03T08:22:49;1.45;;;0.60;;
66429;SDS011;53242;51.694;10.006;2023-04-03T08:25:12;3.42;;;0.80;;
66429;SDS011;53242;51.694;10.006;2023-04-03T08:27:35;2.05;;;0.50;;
66429;SDS011;53242;51.694;10.006;2023-04-03T08:29:57;3.33;;;0.60;;
66429;SDS011;53242;51.694;10.006;2023-04-03T08:32:20;1.88;;;0.43;;
66429;SDS011;53242;51.694;10.006;2023-04-03T08:34:42;3.10;;;0.50;;
66429;SDS011;53242;51.694;10.006;2023-04-03T08:37:05;1.25;;;0.68;;
66429;SDS011;53242;51.694;10.006;2023-04-03T08:39:28;0.47;;;0.47;;
66429;SDS011;53242;51.694;10.006;2023-04-03T08:41:50;3.10;;;1.08;;
66429;SDS011;53242;51.694;10.006;2023-04-03T08:44:23;2.88;;;0.50;;
66429;SDS011;53242;51.694;10.006;2023-04-03T08:49:49;2.58;;;0.63;;
66429;SDS011;53242;51.694;10.006;2023-04-03T08:52:17;0.82;;;0.35;;
66429;SDS011;53242;51.694;10.006;2023-04-03T08:54:48;0.80;;;0.30;;
66429;SDS011;53242;51.694;10.006;2023-04-03T08:57:30;3.08;;;0.50;;
66429;SDS011;53242;51.694;10.006;2023-04-03T08:59:55;0.10;;;0.10;;
66429;SDS011;53242;51.694;10.006;2023-04-03T09:02:23;2.47;;;0.38;;
66429;SDS011;53242;51.694;10.006;2023-04-03T09:04:49;0.80;;;0.22;;
66429;SDS011;53242;51.694;10.006;2023-04-03T09:07:17;1.35;;;0.28;;
66429;SDS011;53242;51.694;10.006;2023-04-03T09:10:01;2.95;;;0.30;;
66429;SDS011;53242;51.694;10.006;2023-04-03T09:12:32;2.75;;;0.80;;
66429;SDS011;53242;51.694;10.006;2023-04-03T09:20:25;2.53;;;0.30;;
66429;SDS011;53242;51.694;10.006;2023-04-03T09:22:56;1.17;;;0.40;;
66429;SDS011;53242;51.694;10.006;2023-04-03T09:25:25;3.03;;;0.70;;
66429;SDS011;53242;51.694;10.006;2023-04-03T09:27:51;0.85;;;0.17;;
66429;SDS011;53242;51.694;10.006;2023-04-03T09:30:15;2.72;;;0.65;;
66429;SDS011;53242;51.694;10.006;2023-04-03T09:32:40;1.20;;;0.40;;
66429;SDS011;53242;51.694;10.006;2023-04-03T09:35:03;3.42;;;0.60;;
66429;SDS011;53242;51.694;10.006;2023-04-03T09:37:34;2.90;;;0.50;;
66429;SDS011;53242;51.694;10.006;2023-04-03T09:40:04;1.67;;;0.55;;
66429;SDS011;53242;51.694;10.006;2023-04-03T09:42:28;2.17;;;0.47;;
66429;SDS011;53242;51.694;10.006;2023-04-03T09:45:03;1.83;;;0.40;;
66429;SDS011;53242;51.694;10.006;2023-04-03T09:47:28;3.63;;;0.70;;
66429;SDS011;53242;51.694;10.006;2023-04-03T09:55:05;1.95;;;0.32;;
66429;SDS011;53242;51.694;10.006;2023-04-03T09:57:37;3.17;;;0.32;;
66429;SDS011;53242;51.694;10.006;2023-04-03T10:00:01;2.08;;;0.50;;
66429;SDS011;53242;51.694;10.006;2023-04-03T10:02:32;0.73;;;0.35;;
66429;SDS011;53242;51.694;10.006;2023-04-03T10:04:59;2.33;;;0.50;;
66429;SDS011;53242;51.694;10.006;2023-04-03T10:07:26;1.30;;;0.47;;
66429;SDS011;53242;51.694;10.006;2023-04-03T10:09:55;0.75;;;0.50;;
66429;SDS011;53242;51.694;10.006;2023-04-03T10:12:23;3.22;;;0.82;;
66429;SDS011;53242;51.694;10.006;2023-04-03T10:14:59;3.55;;;0.55;;
66429;SDS011;53242;51.694;10.006;2023-04-03T10:25:21;1.73;;;0.80;;
66429;SDS011;53242;51.694;10.006;2023-04-03T10:33:20;3.55;;;0.85;;
66429;SDS011;53242;51.694;10.006;2023-04-03T10:41:35;2.38;;;0.70;;
66429;SDS011;53242;51.694;10.006;2023-04-03T10:49:54;2.80;;;0.50;;
66429;SDS011;53242;51.694;10.006;2023-04-03T10:57:26;1.08;;;0.40;;
66429;SDS011;53242;51.694;10.006;2023-04-03T10:59:51;1.42;;;0.50;;
66429;SDS011;53242;51.694;10.006;2023-04-03T11:02:23;1.58;;;0.55;;
66429;SDS011;53242;51.694;10.006;2023-04-03T11:04:55;1.70;;;0.57;;
66429;SDS011;53242;51.694;10.006;2023-04-03T11:07:24;1.15;;;0.50;;
66429;SDS011;53242;51.694;10.006;2023-04-03T11:09:52;0.90;;;0.40;;
66429;SDS011;53242;51.694;10.006;2023-04-03T11:12:24;1.13;;;0.30;;
66429;SDS011;53242;51.694;10.006;2023-04-03T11:15:12;3.83;;;0.60;;
66429;SDS011;53242;51.694;10.006;2023-04-03T11:17:54;3.28;;;0.60;;
66429;SDS011;53242;51.694;10.006;2023-04-03T11:20:21;1.88;;;0.60;;
66429;SDS011;53242;51.694;10.006;2023-04-03T11:25:43;1.88;;;0.70;;
66429;SDS011;53242;51.694;10.006;2023-04-03T11:28:11;1.27;;;0.50;;
66429;SDS011;53242;51.694;10.006;2023-04-03T11:30:39;3.25;;;0.50;;
66429;SDS011;53242;51.694;10.006;2023-04-03T11:33:21;0.73;;;0.63;;
66429;SDS011;53242;51.694;10.006;2023-04-03T11:35:55;2.97;;;0.55;;
66429;SDS011;53242;51.694;10.006;2023-04-03T11:38:33;1.77;;;0.57;;
66429;SDS011;53242;51.694;10.006;2023-04-03T11:41:02;1.30;;;0.50;;
66429;SDS011;53242;51.694;10.006;2023-04-03T11:43:28;3.00;;;0.40;;
66429;SDS011;53242;51.694;10.006;2023-04-03T11:45:53;1.58;;;0.73;;
66429;SDS011;53242;51.694;10.006;2023-04-03T11:50:56;3.70;;;0.70;;
66429;SDS011;53242;51.694;10.006;2023-04-03T11:53:35;2.92;;;0.68;;
66429;SDS011;53242;51.694;10.006;2023-04-03T11:56:02;1.35;;;0.80;;
66429;SDS011;53242;51.694;10.006;2023-04-03T11:58:29;2.88;;;0.90;;
66429;SDS011;53242;51.694;10.006;2023-04-03T12:01:04;3.25;;;0.70;;
66429;SDS011;53242;51.694;10.006;2023-04-03T12:16:20;0.85;;;0.43;;
66429;SDS011;53242;51.694;10.006;2023-04-03T12:21:12;0.95;;;0.40;;
66429;SDS011;53242;51.694;10.006;2023-04-03T12:28:41;0.85;;;0.38;;
66429;SDS011;53242;51.694;10.006;2023-04-03T12:31:05;1.38;;;0.45;;
66429;SDS011;53242;51.694;10.006;2023-04-03T12:33:36;4.50;;;0.57;;
66429;SDS011;53242;51.694;10.006;2023-04-03T12:36:22;2.45;;;0.80;;
66429;SDS011;53242;51.694;10.006;2023-04-03T12:38:58;3.08;;;0.75;;
66429;SDS011;53242;51.694;10.006;2023-04-03T12:41:36;1.02;;;0.20;;
66429;SDS011;53242;51.694;10.006;2023-04-03T12:44:23;3.10;;;0.60;;
66429;SDS011;53242;51.694;10.006;2023-04-03T12:46:49;1.45;;;0.45;;
66429;SDS011;53242;51.694;10.006;2023-04-03T12:51:50;2.85;;;0.90;;
66429;SDS011;53242;51.694;10.006;2023-04-03T12:54:15;5.07;;;1.10;;
66429;SDS011;53242;51.694;10.006;2023-04-03T12:57:18;1.55;;;0.30;;
66429;SDS011;53242;51.694;10.006;2023-04-03T12:59:42;2.30;;;0.80;;
66429;SDS011;53242;51.694;10.006;2023-04-03T13:02:12;3.60;;;0.77;;
66429;SDS011;53242;51.694;10.006;2023-04-03T13:04:42;4.88;;;0.90;;
66429;SDS011;53242;51.694;10.006;2023-04-03T13:07:05;2.38;;;0.70;;
66429;SDS011;53242;51.694;10.006;2023-04-03T13:09:28;3.20;;;0.60;;
66429;SDS011;53242;51.694;10.006;2023-04-03T13:11:55;3.00;;;0.70;;
66429;SDS011;53242;51.694;10.006;2023-04-03T13:14:23;2.45;;;0.60;;
66429;SDS011;53242;51.694;10.006;2023-04-03T13:17:04;5.18;;;0.88;;
66429;SDS011;53242;51.694;10.006;2023-04-03T13:19:32;2.42;;;0.85;;
66429;SDS011;53242;51.694;10.006;2023-04-03T13:21:58;3.45;;;1.00;;
66429;SDS011;53242;51.694;10.006;2023-04-03T13:24:23;1.63;;;0.60;;
66429;SDS011;53242;51.694;10.006;2023-04-03T13:26:46;6.13;;;0.70;;
66429;SDS011;53242;51.694;10.006;2023-04-03T13:29:19;2.55;;;0.70;;
66429;SDS011;53242;51.694;10.006;2023-04-03T13:31:44;2.92;;;0.52;;
66429;SDS011;53242;51.694;10.006;2023-04-03T13:34:15;1.58;;;0.70;;
66429;SDS011;53242;51.694;10.006;2023-04-03T13:36:41;4.60;;;0.65;;
66429;SDS011;53242;51.694;10.006;2023-04-03T13:41:41;14.45;;;1.58;;
66429;SDS011;53242;51.694;10.006;2023-04-03T13:46:42;2.97;;;0.80;;
66429;SDS011;53242;51.694;10.006;2023-04-03T13:49:17;2.42;;;0.73;;
66429;SDS011;53242;51.694;10.006;2023-04-03T13:51:43;3.83;;;0.60;;
66429;SDS011;53242;51.694;10.006;2023-04-03T13:54:18;2.25;;;0.90;;
66429;SDS011;53242;51.694;10.006;2023-04-03T13:56:45;2.17;;;0.38;;
66429;SDS011;53242;51.694;10.006;2023-04-03T14:01:42;2.15;;;0.50;;
66429;SDS011;53242;51.694;10.006;2023-04-03T14:04:12;3.85;;;0.77;;
66429;SDS011;53242;51.694;10.006;2023-04-03T14:06:39;2.03;;;0.55;;
66429;SDS011;53242;51.694;10.006;2023-04-03T14:09:01;2.17;;;0.70;;
66429;SDS011;53242;51.694;10.006;2023-04-03T14:11:26;0.80;;;0.35;;
66429;SDS011;53242;51.694;10.006;2023-04-03T14:13:51;2.30;;;0.50;;
66429;SDS011;53242;51.694;10.006;2023-04-03T14:16:14;1.80;;;0.50;;
66429;SDS011;53242;51.694;10.006;2023-04-03T14:18:38;1.55;;;0.73;;
66429;SDS011;53242;51.694;10.006;2023-04-03T14:21:01;2.05;;;0.70;;
66429;SDS011;53242;51.694;10.006;2023-04-03T14:23:23;3.38;;;1.05;;
66429;SDS011;53242;51.694;10.006;2023-04-03T14:25:46;1.92;;;0.65;;
66429;SDS011;53242;51.694;10.006;2023-04-03T14:28:16;1.58;;;0.63;;
66429;SDS011;53242;51.694;10.006;2023-04-03T14:30:41;1.55;;;0.82;;
66429;SDS011;53242;51.694;10.006;2023-04-03T14:33:03;5.68;;;0.98;;
66429;SDS011;53242;51.694;10.006;2023-04-03T14:35:26;2.17;;;0.60;;
66429;SDS011;53242;51.694;10.006;2023-04-03T14:37:49;4.55;;;1.13;;
66429;SDS011;53242;51.694;10.006;2023-04-03T14:40:16;3.17;;;0.73;;
66429;SDS011;53242;51.694;10.006;2023-04-03T14:42:43;2.15;;;0.57;;
66429;SDS011;53242;51.694;10.006;2023-04-03T14:45:06;3.20;;;0.75;;
66429;SDS011;53242;51.694;10.006;2023-04-03T14:47:31;3.42;;;0.70;;
66429;SDS011;53242;51.694;10.006;2023-04-03T14:49:54;0.85;;;0.40;;
66429;SDS011;53242;51.694;10.006;2023-04-03T14:52:21;6.00;;;0.73;;
66429;SDS011;53242;51.694;10.006;2023-04-03T14:54:44;2.05;;;0.70;;
66429;SDS011;53242;51.694;10.006;2023-04-03T14:57:08;2.80;;;0.73;;
66429;SDS011;53242;51.694;10.006;2023-04-03T14:59:34;3.15;;;0.90;;
66429;SDS011;53242;51.694;10.006;2023-04-03T15:01:57;4.63;;;0.90;;
66429;SDS011;53242;51.694;10.006;2023-04-03T15:04:20;1.38;;;0.40;;
66429;SDS011;53242;51.694;10.006;2023-04-03T15:06:43;1.88;;;0.65;;
66429;SDS011;53242;51.694;10.006;2023-04-03T15:09:11;2.78;;;0.70;;
66429;SDS011;53242;51.694;10.006;2023-04-03T15:11:44;3.92;;;1.02;;
66429;SDS011;53242;51.694;10.006;2023-04-03T15:14:08;2.38;;;0.63;;
66429;SDS011;53242;51.694;10.006;2023-04-03T15:16:31;2.83;;;0.80;;
66429;SDS011;53242;51.694;10.006;2023-04-03T15:18:53;3.47;;;0.85;;
66429;SDS011;53242;51.694;10.006;2023-04-03T15:21:16;2.55;;;0.93;;
66429;SDS011;53242;51.694;10.006;2023-04-03T15:23:39;3.35;;;0.70;;
66429;SDS011;53242;51.694;10.006;2023-04-03T15:26:01;2.85;;;0.80;;
66429;SDS011;53242;51.694;10.006;2023-04-03T15:30:58;2.85;;;0.90;;
66429;SDS011;53242;51.694;10.006;2023-04-03T15:33:21;3.60;;;0.70;;
66429;SDS011;53242;51.694;10.006;2023-04-03T15:35:44;1.52;;;0.30;;
66429;SDS011;53242;51.694;10.006;2023-04-03T15:38:07;1.33;;;0.65;;
66429;SDS011;53242;51.694;10.006;2023-04-03T15:40:30;2.45;;;0.57;;
66429;SDS011;53242;51.694;10.006;2023-04-03T15:42:52;1.38;;;0.60;;
66429;SDS011;53242;51.694;10.006;2023-04-03T15:45:15;3.78;;;0.90;;
66429;SDS011;53242;51.694;10.006;2023-04-03T15:47:37;2.42;;;0.70;;
66429;SDS011;53242;51.694;10.006;2023-04-03T15:50:00;1.48;;;0.63;;
66429;SDS011;53242;51.694;10.006;2023-04-03T15:52:23;1.30;;;0.55;;